sensor_id;sensor_type;location;lat;lon;timestamp;P1;durP1;ratioP1;P2;durP2;ratioP2
10191;SDS011;17580;50.850;4.504;2023-02-19T00:01:39;3.87;;;3.57;;
10191;SDS011;17580;50.850;4.504;2023-02-19T00:04:09;4.17;;;3.87;;
10191;SDS011;17580;50.850;4.504;2023-02-19T00:06:38;5.90;;;5.03;;
10191;SDS011;17580;50.850;4.504;2023-02-19T00:09:06;4.67;;;4.27;;
10191;SDS011;17580;50.850;4.504;2023-02-19T00:11:34;4.63;;;4.20;;
10191;SDS011;17580;50.850;4.504;2023-02-19T00:14:02;4.90;;;4.40;;
10191;SDS011;17580;50.850;4.504;2023-02-19T00:16:31;6.57;;;5.60;;
10191;SDS011;17580;50.850;4.504;2023-02-19T00:18:59;6.73;;;5.47;;
10191;SDS011;17580;50.850;4.504;2023-02-19T00:21:28;6.53;;;5.93;;
10191;SDS011;17580;50.850;4.504;2023-02-19T00:23:56;6.67;;;6.00;;
10191;SDS011;17580;50.850;4.504;2023-02-19T00:26:25;7.50;;;5.60;;
10191;SDS011;17580;50.850;4.504;2023-02-19T00:28:53;5.77;;;5.27;;
10191;SDS011;17580;50.850;4.504;2023-02-19T00:31:24;6.10;;;5.13;;
10191;SDS011;17580;50.850;4.504;2023-02-19T00:33:53;6.67;;;5.20;;
10191;SDS011;17580;50.850;4.504;2023-02-19T00:36:21;6.83;;;5.13;;
10191;SDS011;17580;50.850;4.504;2023-02-19T00:38:49;5.80;;;4.97;;
10191;SDS011;17580;50.850;4.504;2023-02-19T00:41:17;5.33;;;4.80;;
10191;SDS011;17580;50.850;4.504;2023-02-19T00:43:45;6.73;;;5.07;;
10191;SDS011;17580;50.850;4.504;2023-02-19T00:46:14;4.93;;;4.57;;
10191;SDS011;17580;50.850;4.504;2023-02-19T00:48:43;6.73;;;5.10;;
10191;SDS011;17580;50.850;4.504;2023-02-19T00:51:10;5.83;;;5.17;;
10191;SDS011;17580;50.850;4.504;2023-02-19T00:53:37;6.60;;;4.70;;
10191;SDS011;17580;50.850;4.504;2023-02-19T00:56:05;8.50;;;5.63;;
10191;SDS011;17580;50.850;4.504;2023-02-19T00:58:32;6.33;;;5.30;;
10191;SDS011;17580;50.850;4.504;2023-02-19T01:00:59;10.87;;;5.17;;
10191;SDS011;17580;50.850;4.504;2023-02-19T01:03:27;6.87;;;4.80;;
10191;SDS011;17580;50.850;4.504;2023-02-19T01:05:55;8.27;;;4.83;;
10191;SDS011;17580;50.850;4.504;2023-02-19T01:08:22;5.33;;;4.50;;
10191;SDS011;17580;50.850;4.504;2023-02-19T01:10:49;5.93;;;5.20;;
10191;SDS011;17580;50.850;4.504;2023-02-19T01:13:16;11.33;;;5.83;;
10191;SDS011;17580;50.850;4.504;2023-02-19T01:15:43;5.17;;;4.70;;
10191;SDS011;17580;50.850;4.504;2023-02-19T01:18:10;5.93;;;4.43;;
10191;SDS011;17580;50.850;4.504;2023-02-19T01:20:38;5.03;;;4.53;;
10191;SDS011;17580;50.850;4.504;2023-02-19T01:23:07;8.53;;;4.73;;
10191;SDS011;17580;50.850;4.504;2023-02-19T01:25:36;6.63;;;4.20;;
10191;SDS011;17580;50.850;4.504;2023-02-19T01:28:03;6.43;;;4.87;;
10191;SDS011;17580;50.850;4.504;2023-02-19T01:30:32;4.27;;;3.87;;
10191;SDS011;17580;50.850;4.504;2023-02-19T01:33:01;6.30;;;4.13;;
10191;SDS011;17580;50.850;4.504;2023-02-19T01:35:28;6.20;;;4.93;;
10191;SDS011;17580;50.850;4.504;2023-02-19T01:37:55;7.73;;;5.33;;
10191;SDS011;17580;50.850;4.504;2023-02-19T01:40:23;4.37;;;3.87;;
10191;SDS011;17580;50.850;4.504;2023-02-19T01:42:50;8.40;;;4.70;;
10191;SDS011;17580;50.850;4.504;2023-02-19T01:45:20;6.30;;;4.70;;
10191;SDS011;17580;50.850;4.504;2023-02-19T01:47:50;4.77;;;4.13;;
10191;SDS011;17580;50.850;4.504;2023-02-19T01:50:21;9.57;;;4.57;;
10191;SDS011;17580;50.850;4.504;2023-02-19T01:52:50;6.00;;;3.50;;
10191;SDS011;17580;50.850;4.504;2023-02-19T01:55:17;7.23;;;3.37;;
10191;SDS011;17580;50.850;4.504;2023-02-19T01:57:46;6.17;;;4.30;;
10191;SDS011;17580;50.850;4.504;2023-02-19T02:00:20;5.90;;;3.17;;
10191;SDS011;17580;50.850;4.504;2023-02-19T02:02:50;6.13;;;3.80;;
10191;SDS011;17580;50.850;4.504;2023-02-19T02:05:22;7.10;;;4.00;;
10191;SDS011;17580;50.850;4.504;2023-02-19T02:07:58;8.00;;;3.63;;
10191;SDS011;17580;50.850;4.504;2023-02-19T02:10:45;6.07;;;3.43;;
10191;SDS011;17580;50.850;4.504;2023-02-19T02:13:13;5.53;;;3.73;;
10191;SDS011;17580;50.850;4.504;2023-02-19T02:15:42;7.23;;;3.70;;
10191;SDS011;17580;50.850;4.504;2023-02-19T02:18:18;6.03;;;3.23;;
10191;SDS011;17580;50.850;4.504;2023-02-19T02:20:57;5.13;;;3.07;;
10191;SDS011;17580;50.850;4.504;2023-02-19T02:23:34;8.13;;;3.70;;
10191;SDS011;17580;50.850;4.504;2023-02-19T02:26:15;8.47;;;3.63;;
10191;SDS011;17580;50.850;4.504;2023-02-19T02:31:59;10.90;;;3.90;;
10191;SDS011;17580;50.850;4.504;2023-02-19T02:34:33;8.00;;;3.40;;
10191;SDS011;17580;50.850;4.504;2023-02-19T02:37:06;7.80;;;3.33;;
10191;SDS011;17580;50.850;4.504;2023-02-19T02:39:36;5.03;;;2.43;;
10191;SDS011;17580;50.850;4.504;2023-02-19T02:42:04;7.27;;;3.00;;
10191;SDS011;17580;50.850;4.504;2023-02-19T02:44:49;7.40;;;3.20;;
10191;SDS011;17580;50.850;4.504;2023-02-19T02:47:32;7.47;;;3.37;;
10191;SDS011;17580;50.850;4.504;2023-02-19T02:50:10;7.17;;;3.17;;
10191;SDS011;17580;50.850;4.504;2023-02-19T02:52:44;7.23;;;3.10;;
10191;SDS011;17580;50.850;4.504;2023-02-19T02:55:33;4.77;;;2.83;;
10191;SDS011;17580;50.850;4.504;2023-02-19T02:58:04;6.77;;;2.60;;
10191;SDS011;17580;50.850;4.504;2023-02-19T03:00:32;5.13;;;2.10;;
10191;SDS011;17580;50.850;4.504;2023-02-19T03:03:16;6.97;;;2.40;;
10191;SDS011;17580;50.850;4.504;2023-02-19T03:05:47;7.57;;;2.83;;
10191;SDS011;17580;50.850;4.504;2023-02-19T03:08:20;7.93;;;2.93;;
10191;SDS011;17580;50.850;4.504;2023-02-19T03:10:53;8.00;;;2.67;;
10191;SDS011;17580;50.850;4.504;2023-02-19T03:13:24;8.10;;;2.67;;
10191;SDS011;17580;50.850;4.504;2023-02-19T03:16:16;6.17;;;2.93;;
10191;SDS011;17580;50.850;4.504;2023-02-19T03:19:05;9.73;;;2.80;;
10191;SDS011;17580;50.850;4.504;2023-02-19T03:21:46;7.33;;;2.50;;
10191;SDS011;17580;50.850;4.504;2023-02-19T03:24:17;9.83;;;2.67;;
10191;SDS011;17580;50.850;4.504;2023-02-19T03:27:05;11.97;;;2.20;;
10191;SDS011;17580;50.850;4.504;2023-02-19T03:29:34;10.23;;;2.97;;
10191;SDS011;17580;50.850;4.504;2023-02-19T03:32:05;12.47;;;3.10;;
10191;SDS011;17580;50.850;4.504;2023-02-19T03:34:40;8.00;;;2.70;;
10191;SDS011;17580;50.850;4.504;2023-02-19T03:37:12;9.97;;;2.80;;
10191;SDS011;17580;50.850;4.504;2023-02-19T03:39:42;8.00;;;2.80;;
10191;SDS011;17580;50.850;4.504;2023-02-19T03:42:13;7.77;;;2.10;;
10191;SDS011;17580;50.850;4.504;2023-02-19T03:44:47;5.63;;;2.43;;
10191;SDS011;17580;50.850;4.504;2023-02-19T03:47:27;11.63;;;2.87;;
10191;SDS011;17580;50.850;4.504;2023-02-19T03:50:00;5.23;;;2.33;;
10191;SDS011;17580;50.850;4.504;2023-02-19T03:52:35;9.87;;;2.40;;
10191;SDS011;17580;50.850;4.504;2023-02-19T03:55:07;12.47;;;3.17;;
10191;SDS011;17580;50.850;4.504;2023-02-19T03:57:42;7.30;;;2.27;;
10191;SDS011;17580;50.850;4.504;2023-02-19T04:00:15;8.83;;;2.97;;
10191;SDS011;17580;50.850;4.504;2023-02-19T04:02:45;8.07;;;2.93;;
10191;SDS011;17580;50.850;4.504;2023-02-19T04:05:17;10.90;;;2.60;;
10191;SDS011;17580;50.850;4.504;2023-02-19T04:07:49;10.90;;;2.40;;
10191;SDS011;17580;50.850;4.504;2023-02-19T04:10:18;11.33;;;3.30;;
10191;SDS011;17580;50.850;4.504;2023-02-19T04:12:47;7.13;;;2.33;;
10191;SDS011;17580;50.850;4.504;2023-02-19T04:15:19;7.23;;;2.43;;
10191;SDS011;17580;50.850;4.504;2023-02-19T04:17:51;8.53;;;3.23;;
10191;SDS011;17580;50.850;4.504;2023-02-19T04:20:23;8.57;;;2.37;;
10191;SDS011;17580;50.850;4.504;2023-02-19T04:22:52;6.60;;;2.30;;
10191;SDS011;17580;50.850;4.504;2023-02-19T04:25:19;7.60;;;2.30;;
10191;SDS011;17580;50.850;4.504;2023-02-19T04:27:48;8.37;;;2.63;;
10191;SDS011;17580;50.850;4.504;2023-02-19T04:30:16;5.77;;;2.27;;
10191;SDS011;17580;50.850;4.504;2023-02-19T04:32:43;9.03;;;3.33;;
10191;SDS011;17580;50.850;4.504;2023-02-19T04:35:10;5.97;;;1.80;;
10191;SDS011;17580;50.850;4.504;2023-02-19T04:37:38;9.23;;;2.10;;
10191;SDS011;17580;50.850;4.504;2023-02-19T04:40:05;7.23;;;2.87;;
10191;SDS011;17580;50.850;4.504;2023-02-19T04:42:33;9.47;;;2.80;;
10191;SDS011;17580;50.850;4.504;2023-02-19T04:45:00;7.70;;;1.97;;
10191;SDS011;17580;50.850;4.504;2023-02-19T04:47:27;10.40;;;2.53;;
10191;SDS011;17580;50.850;4.504;2023-02-19T04:49:54;6.97;;;2.00;;
10191;SDS011;17580;50.850;4.504;2023-02-19T04:52:21;6.40;;;2.17;;
10191;SDS011;17580;50.850;4.504;2023-02-19T04:54:49;9.33;;;1.97;;
10191;SDS011;17580;50.850;4.504;2023-02-19T04:57:16;9.03;;;2.37;;
10191;SDS011;17580;50.850;4.504;2023-02-19T04:59:44;7.10;;;2.23;;
10191;SDS011;17580;50.850;4.504;2023-02-19T05:02:11;14.23;;;3.40;;
10191;SDS011;17580;50.850;4.504;2023-02-19T05:04:38;8.93;;;3.30;;
10191;SDS011;17580;50.850;4.504;2023-02-19T05:07:06;10.43;;;2.73;;
10191;SDS011;17580;50.850;4.504;2023-02-19T05:09:33;9.97;;;3.30;;
10191;SDS011;17580;50.850;4.504;2023-02-19T05:12:02;14.50;;;3.33;;
10191;SDS011;17580;50.850;4.504;2023-02-19T05:14:29;7.87;;;2.67;;
10191;SDS011;17580;50.850;4.504;2023-02-19T05:16:56;7.47;;;2.50;;
10191;SDS011;17580;50.850;4.504;2023-02-19T05:19:23;9.67;;;3.10;;
10191;SDS011;17580;50.850;4.504;2023-02-19T05:21:50;12.47;;;3.67;;
10191;SDS011;17580;50.850;4.504;2023-02-19T05:24:17;8.47;;;2.73;;
10191;SDS011;17580;50.850;4.504;2023-02-19T05:26:44;8.90;;;3.10;;
10191;SDS011;17580;50.850;4.504;2023-02-19T05:29:13;5.83;;;2.27;;
10191;SDS011;17580;50.850;4.504;2023-02-19T05:31:40;10.50;;;3.07;;
10191;SDS011;17580;50.850;4.504;2023-02-19T05:34:07;9.43;;;2.93;;
10191;SDS011;17580;50.850;4.504;2023-02-19T05:36:34;11.10;;;2.90;;
10191;SDS011;17580;50.850;4.504;2023-02-19T05:39:02;14.30;;;3.13;;
10191;SDS011;17580;50.850;4.504;2023-02-19T05:41:30;8.07;;;2.40;;
10191;SDS011;17580;50.850;4.504;2023-02-19T05:43:57;6.00;;;2.33;;
10191;SDS011;17580;50.850;4.504;2023-02-19T05:46:26;4.70;;;2.00;;
10191;SDS011;17580;50.850;4.504;2023-02-19T05:48:54;11.00;;;2.77;;
10191;SDS011;17580;50.850;4.504;2023-02-19T05:51:23;7.93;;;1.87;;
10191;SDS011;17580;50.850;4.504;2023-02-19T05:53:51;9.07;;;2.30;;
10191;SDS011;17580;50.850;4.504;2023-02-19T05:59:14;10.40;;;3.20;;
10191;SDS011;17580;50.850;4.504;2023-02-19T06:01:44;7.17;;;2.70;;
10191;SDS011;17580;50.850;4.504;2023-02-19T06:04:11;6.30;;;2.20;;
10191;SDS011;17580;50.850;4.504;2023-02-19T06:06:39;11.00;;;3.47;;
10191;SDS011;17580;50.850;4.504;2023-02-19T06:09:07;11.90;;;2.60;;
10191;SDS011;17580;50.850;4.504;2023-02-19T06:11:35;10.33;;;2.57;;
10191;SDS011;17580;50.850;4.504;2023-02-19T06:14:02;9.97;;;2.80;;
10191;SDS011;17580;50.850;4.504;2023-02-19T06:16:30;11.60;;;3.27;;
10191;SDS011;17580;50.850;4.504;2023-02-19T06:19:00;9.30;;;3.03;;
10191;SDS011;17580;50.850;4.504;2023-02-19T06:21:27;5.30;;;2.50;;
10191;SDS011;17580;50.850;4.504;2023-02-19T06:23:54;7.83;;;2.57;;
10191;SDS011;17580;50.850;4.504;2023-02-19T06:26:22;7.77;;;2.17;;
10191;SDS011;17580;50.850;4.504;2023-02-19T06:28:50;12.17;;;2.70;;
10191;SDS011;17580;50.850;4.504;2023-02-19T06:31:18;13.43;;;2.93;;
10191;SDS011;17580;50.850;4.504;2023-02-19T06:33:46;12.70;;;2.47;;
10191;SDS011;17580;50.850;4.504;2023-02-19T06:36:17;12.20;;;3.63;;
10191;SDS011;17580;50.850;4.504;2023-02-19T06:38:45;9.03;;;2.93;;
10191;SDS011;17580;50.850;4.504;2023-02-19T06:41:12;10.40;;;3.27;;
10191;SDS011;17580;50.850;4.504;2023-02-19T06:43:39;8.20;;;2.80;;
10191;SDS011;17580;50.850;4.504;2023-02-19T06:46:07;10.80;;;2.93;;
10191;SDS011;17580;50.850;4.504;2023-02-19T06:48:35;4.87;;;2.03;;
10191;SDS011;17580;50.850;4.504;2023-02-19T06:51:05;7.63;;;2.40;;
10191;SDS011;17580;50.850;4.504;2023-02-19T06:53:33;8.53;;;2.40;;
10191;SDS011;17580;50.850;4.504;2023-02-19T06:56:01;7.00;;;2.63;;
10191;SDS011;17580;50.850;4.504;2023-02-19T06:58:29;8.23;;;3.13;;
10191;SDS011;17580;50.850;4.504;2023-02-19T07:00:56;7.93;;;2.20;;
10191;SDS011;17580;50.850;4.504;2023-02-19T07:03:23;7.13;;;2.47;;
10191;SDS011;17580;50.850;4.504;2023-02-19T07:05:51;10.63;;;2.83;;
10191;SDS011;17580;50.850;4.504;2023-02-19T07:08:18;5.77;;;2.13;;
10191;SDS011;17580;50.850;4.504;2023-02-19T07:10:53;4.50;;;2.33;;
10191;SDS011;17580;50.850;4.504;2023-02-19T07:13:21;12.30;;;3.40;;
10191;SDS011;17580;50.850;4.504;2023-02-19T07:15:48;7.57;;;2.33;;
10191;SDS011;17580;50.850;4.504;2023-02-19T07:18:15;5.80;;;2.20;;
10191;SDS011;17580;50.850;4.504;2023-02-19T07:20:42;5.73;;;2.57;;
10191;SDS011;17580;50.850;4.504;2023-02-19T07:23:09;13.60;;;3.33;;
10191;SDS011;17580;50.850;4.504;2023-02-19T07:25:36;7.33;;;2.40;;
10191;SDS011;17580;50.850;4.504;2023-02-19T07:28:05;7.83;;;2.63;;
10191;SDS011;17580;50.850;4.504;2023-02-19T07:30:32;12.20;;;2.73;;
10191;SDS011;17580;50.850;4.504;2023-02-19T07:33:00;7.17;;;2.13;;
10191;SDS011;17580;50.850;4.504;2023-02-19T07:35:27;5.20;;;2.23;;
10191;SDS011;17580;50.850;4.504;2023-02-19T07:37:54;8.00;;;2.03;;
10191;SDS011;17580;50.850;4.504;2023-02-19T07:40:21;9.77;;;2.10;;
10191;SDS011;17580;50.850;4.504;2023-02-19T07:42:48;6.40;;;2.50;;
10191;SDS011;17580;50.850;4.504;2023-02-19T07:45:16;8.20;;;2.77;;
10191;SDS011;17580;50.850;4.504;2023-02-19T07:47:43;7.07;;;2.30;;
10191;SDS011;17580;50.850;4.504;2023-02-19T07:50:10;10.57;;;2.70;;
10191;SDS011;17580;50.850;4.504;2023-02-19T07:52:37;7.17;;;2.43;;
10191;SDS011;17580;50.850;4.504;2023-02-19T07:55:04;7.07;;;2.30;;
10191;SDS011;17580;50.850;4.504;2023-02-19T07:57:32;8.77;;;2.80;;
10191;SDS011;17580;50.850;4.504;2023-02-19T07:59:59;5.43;;;2.50;;
10191;SDS011;17580;50.850;4.504;2023-02-19T08:02:27;7.93;;;2.13;;
10191;SDS011;17580;50.850;4.504;2023-02-19T08:05:12;9.93;;;3.10;;
10191;SDS011;17580;50.850;4.504;2023-02-19T08:07:38;10.40;;;2.97;;
10191;SDS011;17580;50.850;4.504;2023-02-19T08:10:06;12.40;;;3.53;;
10191;SDS011;17580;50.850;4.504;2023-02-19T08:12:53;9.20;;;2.67;;
10191;SDS011;17580;50.850;4.504;2023-02-19T08:15:39;8.53;;;2.87;;
10191;SDS011;17580;50.850;4.504;2023-02-19T08:18:08;4.13;;;2.30;;
10191;SDS011;17580;50.850;4.504;2023-02-19T08:20:35;7.27;;;2.57;;
10191;SDS011;17580;50.850;4.504;2023-02-19T08:23:02;6.93;;;2.43;;
10191;SDS011;17580;50.850;4.504;2023-02-19T08:25:29;7.50;;;2.33;;
10191;SDS011;17580;50.850;4.504;2023-02-19T08:27:56;8.03;;;2.43;;
10191;SDS011;17580;50.850;4.504;2023-02-19T08:30:24;6.80;;;2.27;;
10191;SDS011;17580;50.850;4.504;2023-02-19T08:32:51;10.67;;;2.60;;
10191;SDS011;17580;50.850;4.504;2023-02-19T08:35:20;5.67;;;2.10;;
10191;SDS011;17580;50.850;4.504;2023-02-19T08:37:47;10.73;;;2.57;;
10191;SDS011;17580;50.850;4.504;2023-02-19T08:40:14;8.20;;;2.67;;
10191;SDS011;17580;50.850;4.504;2023-02-19T08:42:42;7.53;;;2.70;;
10191;SDS011;17580;50.850;4.504;2023-02-19T08:45:09;6.07;;;2.13;;
10191;SDS011;17580;50.850;4.504;2023-02-19T08:47:36;6.57;;;2.20;;
10191;SDS011;17580;50.850;4.504;2023-02-19T08:50:03;6.37;;;2.47;;
10191;SDS011;17580;50.850;4.504;2023-02-19T08:52:32;8.07;;;2.60;;
10191;SDS011;17580;50.850;4.504;2023-02-19T08:54:59;6.47;;;2.10;;
10191;SDS011;17580;50.850;4.504;2023-02-19T08:57:26;6.13;;;2.60;;
10191;SDS011;17580;50.850;4.504;2023-02-19T08:59:54;9.07;;;3.07;;
10191;SDS011;17580;50.850;4.504;2023-02-19T09:02:21;8.27;;;2.13;;
10191;SDS011;17580;50.850;4.504;2023-02-19T09:04:49;5.30;;;2.63;;
10191;SDS011;17580;50.850;4.504;2023-02-19T09:07:16;6.80;;;2.70;;
10191;SDS011;17580;50.850;4.504;2023-02-19T09:09:44;5.23;;;2.50;;
10191;SDS011;17580;50.850;4.504;2023-02-19T09:12:11;6.43;;;2.20;;
10191;SDS011;17580;50.850;4.504;2023-02-19T09:14:38;5.67;;;2.63;;
10191;SDS011;17580;50.850;4.504;2023-02-19T09:17:06;4.67;;;2.50;;
10191;SDS011;17580;50.850;4.504;2023-02-19T09:19:35;6.70;;;2.73;;
10191;SDS011;17580;50.850;4.504;2023-02-19T09:22:02;8.20;;;2.63;;
10191;SDS011;17580;50.850;4.504;2023-02-19T09:24:30;10.40;;;3.13;;
10191;SDS011;17580;50.850;4.504;2023-02-19T09:26:59;7.03;;;2.50;;
10191;SDS011;17580;50.850;4.504;2023-02-19T09:29:26;13.67;;;3.33;;
10191;SDS011;17580;50.850;4.504;2023-02-19T09:31:56;5.80;;;2.77;;
10191;SDS011;17580;50.850;4.504;2023-02-19T09:34:25;7.40;;;2.60;;
10191;SDS011;17580;50.850;4.504;2023-02-19T09:36:53;5.97;;;2.30;;
10191;SDS011;17580;50.850;4.504;2023-02-19T09:39:20;6.27;;;2.03;;
10191;SDS011;17580;50.850;4.504;2023-02-19T09:41:48;9.87;;;2.93;;
10191;SDS011;17580;50.850;4.504;2023-02-19T09:44:20;7.90;;;2.60;;
10191;SDS011;17580;50.850;4.504;2023-02-19T09:46:51;13.83;;;4.10;;
10191;SDS011;17580;50.850;4.504;2023-02-19T09:49:19;10.07;;;3.30;;
10191;SDS011;17580;50.850;4.504;2023-02-19T09:51:51;7.07;;;2.63;;
10191;SDS011;17580;50.850;4.504;2023-02-19T09:54:22;8.43;;;2.93;;
10191;SDS011;17580;50.850;4.504;2023-02-19T09:56:50;7.53;;;2.97;;
10191;SDS011;17580;50.850;4.504;2023-02-19T09:59:22;8.47;;;2.63;;
10191;SDS011;17580;50.850;4.504;2023-02-19T10:01:53;7.83;;;2.67;;
10191;SDS011;17580;50.850;4.504;2023-02-19T10:04:26;7.13;;;2.83;;
10191;SDS011;17580;50.850;4.504;2023-02-19T10:06:53;7.57;;;2.77;;
10191;SDS011;17580;50.850;4.504;2023-02-19T10:09:28;8.67;;;3.00;;
10191;SDS011;17580;50.850;4.504;2023-02-19T10:11:57;5.77;;;2.33;;
10191;SDS011;17580;50.850;4.504;2023-02-19T10:14:29;8.57;;;3.00;;
10191;SDS011;17580;50.850;4.504;2023-02-19T10:17:02;8.67;;;3.03;;
10191;SDS011;17580;50.850;4.504;2023-02-19T10:19:31;5.47;;;2.43;;
10191;SDS011;17580;50.850;4.504;2023-02-19T10:21:58;7.03;;;2.20;;
10191;SDS011;17580;50.850;4.504;2023-02-19T10:24:28;5.17;;;2.73;;
10191;SDS011;17580;50.850;4.504;2023-02-19T10:26:56;4.80;;;2.33;;
10191;SDS011;17580;50.850;4.504;2023-02-19T10:29:23;7.17;;;2.70;;
10191;SDS011;17580;50.850;4.504;2023-02-19T10:34:45;9.63;;;3.47;;
10191;SDS011;17580;50.850;4.504;2023-02-19T10:37:13;5.93;;;2.70;;
10191;SDS011;17580;50.850;4.504;2023-02-19T10:39:42;6.27;;;2.40;;
10191;SDS011;17580;50.850;4.504;2023-02-19T10:42:15;8.23;;;2.63;;
10191;SDS011;17580;50.850;4.504;2023-02-19T10:44:45;4.47;;;2.47;;
10191;SDS011;17580;50.850;4.504;2023-02-19T10:47:17;8.20;;;3.53;;
10191;SDS011;17580;50.850;4.504;2023-02-19T10:49:47;9.07;;;2.70;;
10191;SDS011;17580;50.850;4.504;2023-02-19T10:52:16;7.03;;;2.63;;
10191;SDS011;17580;50.850;4.504;2023-02-19T10:54:48;4.10;;;2.70;;
10191;SDS011;17580;50.850;4.504;2023-02-19T10:57:25;9.07;;;3.10;;
10191;SDS011;17580;50.850;4.504;2023-02-19T10:59:58;3.90;;;2.50;;
10191;SDS011;17580;50.850;4.504;2023-02-19T11:02:28;6.50;;;2.50;;
10191;SDS011;17580;50.850;4.504;2023-02-19T11:05:01;7.73;;;2.50;;
10191;SDS011;17580;50.850;4.504;2023-02-19T11:07:42;5.63;;;2.50;;
10191;SDS011;17580;50.850;4.504;2023-02-19T11:10:18;3.60;;;2.90;;
10191;SDS011;17580;50.850;4.504;2023-02-19T11:12:49;5.60;;;2.90;;
10191;SDS011;17580;50.850;4.504;2023-02-19T11:15:19;7.13;;;2.73;;
10191;SDS011;17580;50.850;4.504;2023-02-19T11:17:56;7.97;;;3.47;;
10191;SDS011;17580;50.850;4.504;2023-02-19T11:20:26;5.57;;;2.57;;
10191;SDS011;17580;50.850;4.504;2023-02-19T11:22:56;7.17;;;3.03;;
10191;SDS011;17580;50.850;4.504;2023-02-19T11:25:26;6.97;;;2.90;;
10191;SDS011;17580;50.850;4.504;2023-02-19T11:27:54;7.07;;;2.70;;
10191;SDS011;17580;50.850;4.504;2023-02-19T11:30:30;4.17;;;3.23;;
10191;SDS011;17580;50.850;4.504;2023-02-19T11:33:12;4.80;;;2.60;;
10191;SDS011;17580;50.850;4.504;2023-02-19T11:35:46;6.50;;;2.80;;
10191;SDS011;17580;50.850;4.504;2023-02-19T11:38:15;4.90;;;2.10;;
10191;SDS011;17580;50.850;4.504;2023-02-19T11:40:44;3.40;;;2.20;;
10191;SDS011;17580;50.850;4.504;2023-02-19T11:46:11;4.30;;;2.53;;
10191;SDS011;17580;50.850;4.504;2023-02-19T11:48:53;9.43;;;3.37;;
10191;SDS011;17580;50.850;4.504;2023-02-19T11:54:31;5.00;;;3.20;;
10191;SDS011;17580;50.850;4.504;2023-02-19T11:57:13;7.07;;;3.00;;
10191;SDS011;17580;50.850;4.504;2023-02-19T11:59:51;6.77;;;3.03;;
10191;SDS011;17580;50.850;4.504;2023-02-19T12:02:32;4.17;;;2.60;;
10191;SDS011;17580;50.850;4.504;2023-02-19T12:05:19;5.77;;;2.77;;
10191;SDS011;17580;50.850;4.504;2023-02-19T12:08:03;7.57;;;3.00;;
10191;SDS011;17580;50.850;4.504;2023-02-19T12:10:40;4.27;;;2.37;;
10191;SDS011;17580;50.850;4.504;2023-02-19T12:13:16;6.50;;;2.83;;
10191;SDS011;17580;50.850;4.504;2023-02-19T12:16:01;3.93;;;2.20;;
10191;SDS011;17580;50.850;4.504;2023-02-19T12:18:48;4.77;;;2.80;;
10191;SDS011;17580;50.850;4.504;2023-02-19T12:21:31;8.13;;;2.70;;
10191;SDS011;17580;50.850;4.504;2023-02-19T12:27:30;2.93;;;2.30;;
10191;SDS011;17580;50.850;4.504;2023-02-19T12:30:17;5.60;;;2.37;;
10191;SDS011;17580;50.850;4.504;2023-02-19T12:33:21;3.53;;;2.20;;
10191;SDS011;17580;50.850;4.504;2023-02-19T12:36:04;5.90;;;2.60;;
10191;SDS011;17580;50.850;4.504;2023-02-19T12:38:46;5.20;;;2.43;;
10191;SDS011;17580;50.850;4.504;2023-02-19T12:41:26;3.13;;;2.50;;
10191;SDS011;17580;50.850;4.504;2023-02-19T12:44:03;3.77;;;2.17;;
10191;SDS011;17580;50.850;4.504;2023-02-19T12:46:35;2.33;;;1.90;;
10191;SDS011;17580;50.850;4.504;2023-02-19T12:49:06;2.67;;;2.07;;
10191;SDS011;17580;50.850;4.504;2023-02-19T12:51:39;2.63;;;2.17;;
10191;SDS011;17580;50.850;4.504;2023-02-19T12:54:13;6.80;;;3.37;;
10191;SDS011;17580;50.850;4.504;2023-02-19T12:56:49;5.07;;;2.70;;
10191;SDS011;17580;50.850;4.504;2023-02-19T12:59:21;2.97;;;2.70;;
10191;SDS011;17580;50.850;4.504;2023-02-19T13:01:54;3.17;;;2.43;;
10191;SDS011;17580;50.850;4.504;2023-02-19T13:04:27;7.87;;;2.50;;
10191;SDS011;17580;50.850;4.504;2023-02-19T13:07:03;4.43;;;2.63;;
10191;SDS011;17580;50.850;4.504;2023-02-19T13:09:37;7.27;;;3.07;;
10191;SDS011;17580;50.850;4.504;2023-02-19T13:12:10;4.80;;;2.80;;
10191;SDS011;17580;50.850;4.504;2023-02-19T13:14:40;6.57;;;3.03;;
10191;SDS011;17580;50.850;4.504;2023-02-19T13:17:15;5.77;;;2.63;;
10191;SDS011;17580;50.850;4.504;2023-02-19T13:19:47;4.77;;;3.00;;
10191;SDS011;17580;50.850;4.504;2023-02-19T13:22:18;2.57;;;2.10;;
10191;SDS011;17580;50.850;4.504;2023-02-19T13:25:09;4.03;;;2.40;;
10191;SDS011;17580;50.850;4.504;2023-02-19T13:27:47;12.03;;;2.87;;
10191;SDS011;17580;50.850;4.504;2023-02-19T13:33:35;5.77;;;2.47;;
10191;SDS011;17580;50.850;4.504;2023-02-19T13:36:11;5.20;;;1.90;;
10191;SDS011;17580;50.850;4.504;2023-02-19T13:38:40;5.80;;;2.47;;
10191;SDS011;17580;50.850;4.504;2023-02-19T13:41:25;2.20;;;1.90;;
10191;SDS011;17580;50.850;4.504;2023-02-19T13:43:54;4.33;;;2.20;;
10191;SDS011;17580;50.850;4.504;2023-02-19T13:46:23;5.77;;;2.60;;
10191;SDS011;17580;50.850;4.504;2023-02-19T13:51:51;3.63;;;2.20;;
10191;SDS011;17580;50.850;4.504;2023-02-19T13:54:23;3.53;;;2.20;;
10191;SDS011;17580;50.850;4.504;2023-02-19T14:00:21;3.00;;;1.83;;
10191;SDS011;17580;50.850;4.504;2023-02-19T14:03:27;3.10;;;2.60;;
10191;SDS011;17580;50.850;4.504;2023-02-19T14:05:57;4.37;;;2.40;;
10191;SDS011;17580;50.850;4.504;2023-02-19T14:08:45;4.90;;;2.30;;
10191;SDS011;17580;50.850;4.504;2023-02-19T14:14:27;5.33;;;2.60;;
10191;SDS011;17580;50.850;4.504;2023-02-19T14:17:03;4.53;;;2.50;;
10191;SDS011;17580;50.850;4.504;2023-02-19T14:19:56;4.93;;;2.60;;
10191;SDS011;17580;50.850;4.504;2023-02-19T14:28:26;1.70;;;1.60;;
10191;SDS011;17580;50.850;4.504;2023-02-19T14:30:58;3.33;;;2.13;;
10191;SDS011;17580;50.850;4.504;2023-02-19T14:33:28;3.33;;;2.13;;
10191;SDS011;17580;50.850;4.504;2023-02-19T14:35:59;3.63;;;2.30;;
10191;SDS011;17580;50.850;4.504;2023-02-19T14:38:32;3.27;;;2.40;;
10191;SDS011;17580;50.850;4.504;2023-02-19T14:41:02;3.53;;;1.83;;
10191;SDS011;17580;50.850;4.504;2023-02-19T14:43:29;2.73;;;2.00;;
10191;SDS011;17580;50.850;4.504;2023-02-19T14:46:00;2.60;;;2.37;;
10191;SDS011;17580;50.850;4.504;2023-02-19T14:48:33;2.03;;;1.83;;
10191;SDS011;17580;50.850;4.504;2023-02-19T14:51:05;2.17;;;1.97;;
10191;SDS011;17580;50.850;4.504;2023-02-19T14:53:38;2.07;;;1.90;;
10191;SDS011;17580;50.850;4.504;2023-02-19T14:56:15;1.70;;;1.60;;
10191;SDS011;17580;50.850;4.504;2023-02-19T14:58:46;2.00;;;1.80;;
10191;SDS011;17580;50.850;4.504;2023-02-19T15:01:31;1.93;;;1.80;;
10191;SDS011;17580;50.850;4.504;2023-02-19T15:03:58;2.07;;;1.97;;
10191;SDS011;17580;50.850;4.504;2023-02-19T15:06:27;4.60;;;2.60;;
10191;SDS011;17580;50.850;4.504;2023-02-19T15:08:57;2.37;;;2.17;;
10191;SDS011;17580;50.850;4.504;2023-02-19T15:11:26;2.73;;;1.90;;
10191;SDS011;17580;50.850;4.504;2023-02-19T15:13:57;2.40;;;1.80;;
10191;SDS011;17580;50.850;4.504;2023-02-19T15:16:26;1.90;;;1.80;;
10191;SDS011;17580;50.850;4.504;2023-02-19T15:18:55;1.83;;;1.73;;
10191;SDS011;17580;50.850;4.504;2023-02-19T15:21:25;2.60;;;1.90;;
10191;SDS011;17580;50.850;4.504;2023-02-19T15:23:55;1.73;;;1.60;;
10191;SDS011;17580;50.850;4.504;2023-02-19T15:26:26;2.43;;;2.03;;
10191;SDS011;17580;50.850;4.504;2023-02-19T15:29:00;4.40;;;2.73;;
10191;SDS011;17580;50.850;4.504;2023-02-19T15:31:29;1.80;;;1.70;;
10191;SDS011;17580;50.850;4.504;2023-02-19T15:33:56;2.77;;;2.57;;
10191;SDS011;17580;50.850;4.504;2023-02-19T15:36:28;2.77;;;2.40;;
10191;SDS011;17580;50.850;4.504;2023-02-19T15:38:58;2.23;;;2.03;;
10191;SDS011;17580;50.850;4.504;2023-02-19T15:41:28;1.97;;;1.87;;
10191;SDS011;17580;50.850;4.504;2023-02-19T15:44:06;3.70;;;2.10;;
10191;SDS011;17580;50.850;4.504;2023-02-19T15:46:44;2.80;;;2.60;;